createdAt,value
2018-11-20T00:00:36.078Z,1016.74
2018-11-20T00:01:16.631Z,1016.7
2018-11-20T00:01:57.191Z,1016.65
2018-11-20T00:02:37.753Z,1016.73
2018-11-20T00:03:18.320Z,1016.95
2018-11-20T00:03:58.887Z,1016.79
2018-11-20T00:04:39.454Z,1016.79
2018-11-20T00:05:20.056Z,1016.65
2018-11-20T00:06:00.602Z,1016.8
2018-11-20T00:06:41.154Z,1016.66
2018-11-20T00:07:21.727Z,1016.74
2018-11-20T00:08:02.277Z,1016.82
2018-11-20T00:08:42.838Z,1016.67
2018-11-20T00:09:23.396Z,1016.67
2018-11-20T00:10:03.986Z,1016.77
2018-11-20T00:10:44.544Z,1016.69
2018-11-20T00:11:25.176Z,1016.67
2018-11-20T00:12:05.757Z,1016.67
2018-11-20T00:12:46.321Z,1016.71
2018-11-20T00:13:26.910Z,1016.78
2018-11-20T00:14:07.503Z,1016.75
2018-11-20T00:14:48.053Z,1016.73
2018-11-20T00:15:28.604Z,1016.78
2018-11-20T00:16:09.178Z,1016.84
2018-11-20T00:16:49.741Z,1016.78
2018-11-20T00:17:30.378Z,1016.7
2018-11-20T00:18:11.021Z,1016.79
2018-11-20T00:18:51.576Z,1016.77
2018-11-20T00:19:32.179Z,1016.78
2018-11-20T00:20:12.767Z,1016.72
2018-11-20T00:20:53.303Z,1016.85
2018-11-20T00:21:33.862Z,1016.75
2018-11-20T00:22:14.429Z,1016.82
2018-11-20T00:22:55.010Z,1016.85
2018-11-20T00:23:35.560Z,1016.8
2018-11-20T00:24:16.113Z,1016.68
2018-11-20T00:24:56.663Z,1016.71
2018-11-20T00:25:37.231Z,1016.71
2018-11-20T00:26:17.812Z,1016.81
2018-11-20T00:26:58.437Z,1016.74
2018-11-20T00:27:39.025Z,1016.73
2018-11-20T00:28:19.590Z,1016.7
2018-11-20T00:29:00.158Z,1016.68
2018-11-20T00:29:40.730Z,1016.78
2018-11-20T00:30:21.297Z,1016.67
2018-11-20T00:31:01.871Z,1016.73
2018-11-20T00:31:42.438Z,1016.73
2018-11-20T00:32:22.984Z,1016.73
2018-11-20T00:33:03.538Z,1016.63
2018-11-20T00:33:44.084Z,1016.77
2018-11-20T00:34:24.648Z,1016.76
2018-11-20T00:35:05.243Z,1016.63
2018-11-20T00:35:45.800Z,1016.7
2018-11-20T00:36:26.360Z,1016.7
2018-11-20T00:37:06.914Z,1016.64
2018-11-20T00:37:47.505Z,1016.73
2018-11-20T00:38:28.119Z,1016.72
2018-11-20T00:39:08.843Z,1016.69
2018-11-20T00:39:49.336Z,1016.68
2018-11-20T00:40:29.892Z,1016.67
2018-11-20T00:41:10.445Z,1016.7
2018-11-20T00:41:51.016Z,1016.7
2018-11-20T00:42:31.672Z,1016.61
2018-11-20T00:43:12.163Z,1016.4
2018-11-20T00:43:52.746Z,1016.47
2018-11-20T00:44:33.337Z,1016.56
2018-11-20T00:45:13.978Z,1016.53
2018-11-20T00:45:54.561Z,1016.55
2018-11-20T00:46:35.245Z,1016.56
2018-11-20T00:47:15.892Z,1016.63
2018-11-20T00:47:56.480Z,1016.57
2018-11-20T00:48:37.027Z,1016.51
2018-11-20T00:49:17.597Z,1016.56
2018-11-20T00:49:58.129Z,1016.53
2018-11-20T00:50:38.741Z,1016.56
2018-11-20T00:51:19.291Z,1016.53
2018-11-20T00:51:59.868Z,1016.52
2018-11-20T00:52:40.556Z,1016.46
2018-11-20T00:53:21.222Z,1016.53
2018-11-20T00:54:01.877Z,1016.53
2018-11-20T00:54:42.517Z,1016.56
2018-11-20T00:55:23.094Z,1016.42
2018-11-20T00:56:03.654Z,1016.49
2018-11-20T00:56:44.806Z,1016.44
2018-11-20T00:57:25.460Z,1016.47
2018-11-20T00:58:06.055Z,1016.47
2018-11-20T00:58:46.643Z,1016.44
2018-11-20T00:59:27.295Z,1016.47
2018-11-20T01:00:07.869Z,1016.47
2018-11-20T01:00:48.432Z,1016.39
2018-11-20T01:01:28.989Z,1016.41
2018-11-20T01:02:09.565Z,1016.45
2018-11-20T01:02:50.112Z,1016.41
2018-11-20T01:03:30.664Z,1016.39
2018-11-20T01:04:11.232Z,1016.36
2018-11-20T01:04:51.823Z,1016.35
2018-11-20T01:05:32.462Z,1016.37
2018-11-20T01:06:12.966Z,1016.38
2018-11-20T01:06:53.592Z,1016.28
2018-11-20T01:07:34.204Z,1016.31
2018-11-20T01:08:14.820Z,1016.3
2018-11-20T01:08:55.402Z,1016.32
2018-11-20T01:09:36.021Z,1016.32
2018-11-20T01:10:16.660Z,1016.26
2018-11-20T01:10:57.219Z,1016.4
2018-11-20T01:11:37.758Z,1016.33
2018-11-20T01:12:18.320Z,1016.23
2018-11-20T01:12:58.865Z,1016.25
2018-11-20T01:13:39.431Z,1016.28
2018-11-20T01:14:19.991Z,1016.32
2018-11-20T01:15:00.818Z,1016.25
2018-11-20T01:15:41.361Z,1016.24
2018-11-20T01:16:21.928Z,1016.26
2018-11-20T01:17:02.485Z,1016.23
2018-11-20T01:17:43.056Z,1016.31
2018-11-20T01:18:23.660Z,1016.29
2018-11-20T01:19:04.233Z,1016.23
2018-11-20T01:19:44.842Z,1016.23
2018-11-20T01:20:25.406Z,1016.19
2018-11-20T01:21:05.958Z,1016.1
2018-11-20T01:21:46.556Z,1016.25
2018-11-20T01:22:27.105Z,1016.21
2018-11-20T01:23:07.679Z,1016.2
2018-11-20T01:23:48.246Z,1016.13
2018-11-20T01:24:28.799Z,1016.2
2018-11-20T01:25:09.393Z,1016.16
2018-11-20T01:25:49.957Z,1016.17
2018-11-20T01:26:30.527Z,1016.19
2018-11-20T01:27:11.165Z,1016.18
2018-11-20T01:27:51.729Z,1016.08
2018-11-20T01:28:32.299Z,1016.07
2018-11-20T01:29:12.919Z,1016.18
2018-11-20T01:29:53.479Z,1016.2
2018-11-20T01:30:34.052Z,1016.05
2018-11-20T01:31:14.666Z,1016.1
2018-11-20T01:31:55.254Z,1016.09
2018-11-20T01:32:35.807Z,1016.1
2018-11-20T01:33:16.364Z,1016.11
2018-11-20T01:33:56.913Z,1016.07
2018-11-20T01:34:37.465Z,1016.08
2018-11-20T01:35:18.053Z,1016.1
2018-11-20T01:35:58.600Z,1016.02
2018-11-20T01:36:39.157Z,1016.09
2018-11-20T01:37:19.717Z,1016.05
2018-11-20T01:38:00.266Z,1016.06
2018-11-20T01:38:40.834Z,1016.09
2018-11-20T01:39:21.397Z,1016.04
2018-11-20T01:40:01.958Z,1015.99
2018-11-20T01:40:42.504Z,1015.95
2018-11-20T01:41:23.148Z,1016.09
2018-11-20T01:42:03.619Z,1016.12
2018-11-20T01:42:44.185Z,1016.06
2018-11-20T01:43:24.757Z,1016.06
2018-11-20T01:44:05.320Z,1016.05
2018-11-20T01:44:45.907Z,1016.1
2018-11-20T01:45:26.451Z,1016.08
2018-11-20T01:46:07.006Z,1016.01
2018-11-20T01:46:47.584Z,1016.05
2018-11-20T01:47:28.181Z,1016.05
2018-11-20T01:48:08.745Z,1015.99
2018-11-20T01:48:49.293Z,1016.03
2018-11-20T01:49:29.843Z,1016.01
2018-11-20T01:50:10.433Z,1015.89
2018-11-20T01:50:51.017Z,1016.02
2018-11-20T01:51:31.764Z,1015.99
2018-11-20T01:52:12.160Z,1016.02
2018-11-20T01:52:52.738Z,1016.01
2018-11-20T01:53:33.394Z,1015.96
2018-11-20T01:54:14.002Z,1015.94
2018-11-20T01:54:54.626Z,1015.97
2018-11-20T01:55:35.210Z,1015.99
2018-11-20T01:56:15.767Z,1015.94
2018-11-20T01:56:56.412Z,1015.89
2018-11-20T01:57:36.981Z,1015.96
2018-11-20T01:58:17.540Z,1015.98
2018-11-20T01:58:58.095Z,1015.89
2018-11-20T01:59:38.651Z,1016.03
2018-11-20T02:00:19.211Z,1015.98
2018-11-20T02:00:59.821Z,1015.88
2018-11-20T02:01:40.424Z,1015.95
2018-11-20T02:02:21.092Z,1015.93
2018-11-20T02:03:01.687Z,1015.9
2018-11-20T02:03:42.265Z,1015.88
2018-11-20T02:04:22.817Z,1015.89
2018-11-20T02:05:03.370Z,1015.95
2018-11-20T02:05:43.978Z,1015.79
2018-11-20T02:06:24.554Z,1015.75
2018-11-20T02:07:05.113Z,1015.8
2018-11-20T02:07:45.668Z,1015.82
2018-11-20T02:08:26.224Z,1015.85
2018-11-20T02:09:06.806Z,1015.81
2018-11-20T02:09:47.372Z,1015.92
2018-11-20T02:10:27.930Z,1015.85
2018-11-20T02:11:08.492Z,1015.73
2018-11-20T02:11:49.043Z,1015.73
2018-11-20T02:12:29.588Z,1015.71
2018-11-20T02:13:10.148Z,1015.87
2018-11-20T02:13:50.700Z,1015.89
2018-11-20T02:14:31.255Z,1015.82
2018-11-20T02:15:11.827Z,1015.83
2018-11-20T02:15:52.394Z,1015.85
2018-11-20T02:16:32.944Z,1015.81
2018-11-20T02:17:13.507Z,1015.78
2018-11-20T02:17:54.103Z,1015.76
2018-11-20T02:18:34.677Z,1015.72
2018-11-20T02:19:15.238Z,1015.73
2018-11-20T02:19:55.788Z,1015.77
2018-11-20T02:20:36.343Z,1015.79
2018-11-20T02:21:16.906Z,1015.74
2018-11-20T02:21:57.475Z,1015.75
2018-11-20T02:22:38.041Z,1015.8
2018-11-20T02:23:18.637Z,1015.77
2018-11-20T02:23:59.224Z,1015.78
2018-11-20T02:24:39.856Z,1015.67
2018-11-20T02:25:20.497Z,1015.76
2018-11-20T02:26:01.150Z,1015.73
2018-11-20T02:26:41.714Z,1015.72
2018-11-20T02:27:22.268Z,1015.78
2018-11-20T02:28:02.820Z,1015.77
2018-11-20T02:28:43.382Z,1015.77
2018-11-20T02:29:23.961Z,1015.78
2018-11-20T02:30:04.518Z,1015.76
2018-11-20T02:30:45.108Z,1015.75
2018-11-20T02:31:25.685Z,1015.75
2018-11-20T02:32:06.257Z,1015.73
2018-11-20T02:32:46.824Z,1015.65
2018-11-20T02:33:27.378Z,1015.69
2018-11-20T02:34:07.923Z,1015.63
2018-11-20T02:34:48.476Z,1015.64
2018-11-20T02:35:29.023Z,1015.68
2018-11-20T02:36:09.593Z,1015.62
2018-11-20T02:36:50.158Z,1015.64
2018-11-20T02:37:30.732Z,1015.56
2018-11-20T02:38:11.344Z,1015.63
2018-11-20T02:38:51.896Z,1015.64
2018-11-20T02:39:32.503Z,1015.62
2018-11-20T02:40:13.045Z,1015.6
2018-11-20T02:40:53.669Z,1015.6
2018-11-20T02:41:34.254Z,1015.56
2018-11-20T02:42:14.796Z,1015.59
2018-11-20T02:42:55.349Z,1015.58
2018-11-20T02:43:35.905Z,1015.55
2018-11-20T02:44:16.460Z,1015.51
2018-11-20T02:44:57.033Z,1015.56
2018-11-20T02:45:37.596Z,1015.57
2018-11-20T02:46:18.135Z,1015.55
2018-11-20T02:46:58.942Z,1015.57
2018-11-20T02:47:39.825Z,1015.54
2018-11-20T02:48:20.382Z,1015.56
2018-11-20T02:49:02.098Z,1015.53
2018-11-20T02:49:42.656Z,1015.5
2018-11-20T02:50:23.216Z,1015.4
2018-11-20T02:51:03.825Z,1015.4
2018-11-20T02:51:44.396Z,1015.45
2018-11-20T02:52:24.970Z,1015.31
2018-11-20T02:53:05.558Z,1015.42
2018-11-20T02:53:46.154Z,1015.33
2018-11-20T02:54:26.705Z,1015.37
2018-11-20T02:55:07.263Z,1015.33
2018-11-20T02:55:47.821Z,1015.39
2018-11-20T02:56:28.377Z,1015.37
2018-11-20T02:57:08.935Z,1015.43
2018-11-20T02:57:49.556Z,1015.33
2018-11-20T02:58:30.160Z,1015.34
2018-11-20T02:59:10.724Z,1015.38
2018-11-20T02:59:51.283Z,1015.34
2018-11-20T03:00:31.838Z,1015.34
2018-11-20T03:01:12.393Z,1015.37
2018-11-20T03:01:52.955Z,1015.28
2018-11-20T03:02:33.520Z,1015.34
2018-11-20T03:03:14.120Z,1015.3
2018-11-20T03:03:54.923Z,1015.24
2018-11-20T03:04:35.324Z,1015.24
2018-11-20T03:05:15.904Z,1015.22
2018-11-20T03:05:56.458Z,1015.24
2018-11-20T03:06:37.241Z,1015.16
2018-11-20T03:07:17.811Z,1015.18
2018-11-20T03:07:58.424Z,1015.16
2018-11-20T03:08:39.002Z,1015.17
2018-11-20T03:09:19.601Z,1015.17
2018-11-20T03:10:00.178Z,1015.11
2018-11-20T03:10:40.731Z,1015.04
2018-11-20T03:11:21.306Z,1015.13
2018-11-20T03:12:01.877Z,1015.13
2018-11-20T03:12:42.448Z,1015.19
2018-11-20T03:13:23.027Z,1015.09
2018-11-20T03:14:03.553Z,1015.05
2018-11-20T03:14:44.127Z,1015.09
2018-11-20T03:15:24.838Z,1015.01
2018-11-20T03:16:05.394Z,1014.95
2018-11-20T03:16:45.950Z,1014.95
2018-11-20T03:17:26.540Z,1015.01
2018-11-20T03:18:07.123Z,1014.93
2018-11-20T03:18:47.681Z,1014.96
2018-11-20T03:19:28.286Z,1014.96
2018-11-20T03:20:08.874Z,1014.92
2018-11-20T03:20:49.432Z,1014.91
2018-11-20T03:21:29.990Z,1014.96
2018-11-20T03:22:10.560Z,1014.87
2018-11-20T03:22:51.120Z,1014.95
2018-11-20T03:23:31.687Z,1014.98
2018-11-20T03:24:12.246Z,1014.93
2018-11-20T03:24:52.801Z,1014.96
2018-11-20T03:25:33.359Z,1014.92
2018-11-20T03:26:13.948Z,1014.88
2018-11-20T03:26:54.621Z,1014.94
2018-11-20T03:27:35.110Z,1014.9
2018-11-20T03:28:15.677Z,1014.88
2018-11-20T03:28:56.245Z,1014.91
2018-11-20T03:29:36.805Z,1014.94
2018-11-20T03:30:17.382Z,1014.87
2018-11-20T03:30:57.939Z,1014.9
2018-11-20T03:31:38.506Z,1014.84
2018-11-20T03:32:19.064Z,1014.73
2018-11-20T03:32:59.655Z,1014.89
2018-11-20T03:33:40.317Z,1014.75
2018-11-20T03:34:20.933Z,1014.81
2018-11-20T03:35:01.510Z,1014.81
2018-11-20T03:35:42.055Z,1014.83
2018-11-20T03:36:22.640Z,1014.74
2018-11-20T03:37:03.193Z,1014.84
2018-11-20T03:37:43.742Z,1014.71
2018-11-20T03:38:24.321Z,1014.69
2018-11-20T03:39:04.873Z,1014.78
2018-11-20T03:39:45.437Z,1014.77
2018-11-20T03:40:26.008Z,1014.57
2018-11-20T03:41:06.576Z,1014.83
2018-11-20T03:41:47.146Z,1014.76
2018-11-20T03:42:27.765Z,1014.74
2018-11-20T03:43:08.311Z,1014.77
2018-11-20T03:43:48.901Z,1014.69
2018-11-20T03:44:29.479Z,1014.69
2018-11-20T03:45:10.045Z,1014.68
2018-11-20T03:45:50.633Z,1014.64
2018-11-20T03:46:31.201Z,1014.69
2018-11-20T03:47:11.746Z,1014.66
2018-11-20T03:47:52.437Z,1014.68
2018-11-20T03:48:32.888Z,1014.6
2018-11-20T03:49:13.439Z,1014.67
2018-11-20T03:49:53.993Z,1014.65
2018-11-20T03:50:34.610Z,1014.66
2018-11-20T03:51:15.193Z,1014.69
2018-11-20T03:51:55.806Z,1014.7
2018-11-20T03:52:36.418Z,1014.63
2018-11-20T03:53:17.107Z,1014.65
2018-11-20T03:53:57.715Z,1014.64
2018-11-20T03:54:38.506Z,1014.63
2018-11-20T03:55:19.176Z,1014.54
2018-11-20T03:55:59.878Z,1014.63
2018-11-20T03:56:40.431Z,1014.67
2018-11-20T03:57:21.011Z,1014.66
2018-11-20T03:58:01.633Z,1014.7
2018-11-20T03:58:42.164Z,1014.66
2018-11-20T03:59:22.722Z,1014.62
2018-11-20T04:00:03.296Z,1014.57
2018-11-20T04:00:43.882Z,1014.61
2018-11-20T04:01:24.506Z,1014.6
2018-11-20T04:02:05.097Z,1014.65
2018-11-20T04:02:45.647Z,1014.6
2018-11-20T04:03:26.221Z,1014.7
2018-11-20T04:04:06.778Z,1014.65
2018-11-20T04:04:47.333Z,1014.66
2018-11-20T04:05:27.883Z,1014.63
2018-11-20T04:06:08.557Z,1014.59
2018-11-20T04:06:49.111Z,1014.58
2018-11-20T04:07:29.673Z,1014.63
2018-11-20T04:08:10.225Z,1014.66
2018-11-20T04:08:50.784Z,1014.67
2018-11-20T04:09:31.362Z,1014.63
2018-11-20T04:10:11.900Z,1014.64
2018-11-20T04:10:52.476Z,1014.52
2018-11-20T04:11:33.025Z,1014.58
2018-11-20T04:12:13.589Z,1014.51
2018-11-20T04:12:54.152Z,1014.48
2018-11-20T04:13:34.752Z,1014.57
2018-11-20T04:14:15.304Z,1014.5
2018-11-20T04:14:55.870Z,1014.6
2018-11-20T04:15:36.422Z,1014.58
2018-11-20T04:16:17.071Z,1014.52
2018-11-20T04:16:57.597Z,1014.62
2018-11-20T04:17:38.213Z,1014.59
2018-11-20T04:18:18.779Z,1014.57
2018-11-20T04:18:59.390Z,1014.57
2018-11-20T04:19:40.054Z,1014.55
2018-11-20T04:20:20.682Z,1014.58
2018-11-20T04:21:01.360Z,1014.75
2018-11-20T04:21:42.020Z,1014.68
2018-11-20T04:22:22.602Z,1014.6
2018-11-20T04:23:03.250Z,1014.6
2018-11-20T04:23:43.809Z,1014.55
2018-11-20T04:24:24.363Z,1014.48
2018-11-20T04:25:04.912Z,1014.66
2018-11-20T04:25:45.482Z,1014.64
2018-11-20T04:26:26.048Z,1014.59
2018-11-20T04:27:06.612Z,1014.64
2018-11-20T04:27:47.183Z,1014.63
2018-11-20T04:28:27.843Z,1014.61
2018-11-20T04:29:08.445Z,1014.66
2018-11-20T04:29:49.032Z,1014.68
2018-11-20T04:30:29.596Z,1014.77
2018-11-20T04:31:10.299Z,1014.72
2018-11-20T04:31:50.859Z,1014.69
2018-11-20T04:32:31.479Z,1014.7
2018-11-20T04:33:12.036Z,1014.75
2018-11-20T04:33:52.597Z,1014.77
2018-11-20T04:34:33.183Z,1014.79
2018-11-20T04:35:13.740Z,1014.79
2018-11-20T04:35:54.328Z,1014.8
2018-11-20T04:36:34.903Z,1014.82
2018-11-20T04:37:15.476Z,1014.8
2018-11-20T04:37:56.056Z,1014.72
2018-11-20T04:38:36.631Z,1014.79
2018-11-20T04:39:17.195Z,1014.83
2018-11-20T04:39:57.758Z,1014.75
2018-11-20T04:40:38.319Z,1014.79
2018-11-20T04:41:18.890Z,1014.83
2018-11-20T04:41:59.428Z,1014.76
2018-11-20T04:42:40.017Z,1014.81
2018-11-20T04:43:20.567Z,1014.82
2018-11-20T04:44:01.120Z,1014.84
2018-11-20T04:44:41.713Z,1014.82
2018-11-20T04:45:22.306Z,1014.81
2018-11-20T04:46:02.829Z,1014.8
2018-11-20T04:46:43.396Z,1014.74
2018-11-20T04:47:23.964Z,1014.76
2018-11-20T04:48:04.552Z,1014.77
2018-11-20T04:48:45.131Z,1014.71
2018-11-20T04:49:25.697Z,1014.7
2018-11-20T04:50:06.370Z,1014.78
2018-11-20T04:50:46.925Z,1014.77
2018-11-20T04:51:27.478Z,1014.86
2018-11-20T04:52:08.084Z,1014.78
2018-11-20T04:52:48.720Z,1014.73
2018-11-20T04:53:29.290Z,1014.77
2018-11-20T04:54:09.881Z,1014.82
2018-11-20T04:54:50.435Z,1014.8
2018-11-20T04:55:30.983Z,1014.77
2018-11-20T04:56:11.587Z,1014.8
2018-11-20T04:56:52.151Z,1014.84
2018-11-20T04:57:32.896Z,1014.83
2018-11-20T04:58:13.531Z,1014.81
2018-11-20T04:58:54.149Z,1014.86
2018-11-20T04:59:34.780Z,1014.91
2018-11-20T05:00:15.385Z,1014.82
2018-11-20T05:00:55.949Z,1014.9
2018-11-20T05:01:36.509Z,1014.82
2018-11-20T05:02:17.101Z,1014.83
2018-11-20T05:02:57.695Z,1014.9
2018-11-20T05:03:38.263Z,1014.81
2018-11-20T05:04:18.807Z,1014.86
2018-11-20T05:04:59.373Z,1014.77
2018-11-20T05:05:39.930Z,1014.84
2018-11-20T05:06:20.505Z,1014.78
2018-11-20T05:07:01.060Z,1014.78
2018-11-20T05:07:41.608Z,1014.81
2018-11-20T05:08:22.180Z,1014.84
2018-11-20T05:09:02.740Z,1014.81
2018-11-20T05:09:43.361Z,1014.83
2018-11-20T05:10:23.927Z,1014.89
2018-11-20T05:11:04.504Z,1014.91
2018-11-20T05:11:45.066Z,1014.84
2018-11-20T05:12:25.616Z,1014.87
2018-11-20T05:13:06.235Z,1014.9
2018-11-20T05:13:46.746Z,1014.88
2018-11-20T05:14:27.302Z,1014.88
2018-11-20T05:15:07.866Z,1014.77
2018-11-20T05:15:48.451Z,1014.89
2018-11-20T05:16:29.007Z,1014.89
2018-11-20T05:17:09.627Z,1014.83
2018-11-20T05:17:50.184Z,1014.86
2018-11-20T05:18:30.770Z,1014.8
2018-11-20T05:19:11.301Z,1014.81
2018-11-20T05:19:51.886Z,1014.86
2018-11-20T05:20:32.426Z,1014.77
2018-11-20T05:21:13.149Z,1014.74
2018-11-20T05:21:53.762Z,1014.73
2018-11-20T05:22:34.337Z,1014.72
2018-11-20T05:23:14.899Z,1014.73
2018-11-20T05:23:55.466Z,1014.76
2018-11-20T05:24:36.018Z,1014.78
2018-11-20T05:25:16.572Z,1014.79
2018-11-20T05:25:57.122Z,1014.77
2018-11-20T05:26:37.688Z,1014.76
2018-11-20T05:27:18.239Z,1014.78
2018-11-20T05:27:58.877Z,1014.75
2018-11-20T05:28:39.351Z,1014.83
2018-11-20T05:29:19.915Z,1014.83
2018-11-20T05:30:00.486Z,1014.87
2018-11-20T05:30:41.076Z,1014.81
2018-11-20T05:31:21.785Z,1014.75
2018-11-20T05:32:02.352Z,1014.82
2018-11-20T05:32:43.009Z,1014.82
2018-11-20T05:33:23.566Z,1014.8
2018-11-20T05:34:04.139Z,1014.88
2018-11-20T05:34:44.692Z,1014.86
2018-11-20T05:35:25.265Z,1014.9
2018-11-20T05:36:05.816Z,1014.94
2018-11-20T05:36:46.381Z,1014.94
2018-11-20T05:37:26.972Z,1015.01
2018-11-20T05:38:07.574Z,1015.01
2018-11-20T05:38:48.258Z,1014.93
2018-11-20T05:39:28.880Z,1014.97
2018-11-20T05:40:09.497Z,1014.94
2018-11-20T05:40:50.056Z,1015
2018-11-20T05:41:30.617Z,1014.98
2018-11-20T05:42:11.201Z,1015.01
2018-11-20T05:42:51.746Z,1015.05
2018-11-20T05:43:32.312Z,1014.94
2018-11-20T05:44:12.853Z,1015.03
2018-11-20T05:44:53.422Z,1015.09
2018-11-20T05:45:33.961Z,1015.05
2018-11-20T05:46:14.563Z,1015.08
2018-11-20T05:46:55.311Z,1015.1
2018-11-20T05:47:35.706Z,1015.1
2018-11-20T05:48:16.334Z,1015.16
2018-11-20T05:48:56.921Z,1015.15
2018-11-20T05:49:37.491Z,1015.11
2018-11-20T05:50:18.029Z,1015.09
2018-11-20T05:50:58.611Z,1015.03
2018-11-20T05:51:39.170Z,1015.1
2018-11-20T05:52:19.722Z,1015.03
2018-11-20T05:53:00.333Z,1015.06
2018-11-20T05:53:40.888Z,1015.05
2018-11-20T05:54:21.453Z,1015.11
2018-11-20T05:55:02.018Z,1015.06
2018-11-20T05:55:42.582Z,1015.06
2018-11-20T05:56:23.143Z,1015.03
2018-11-20T05:57:03.696Z,1015.14
2018-11-20T05:57:44.246Z,1015.11
2018-11-20T05:58:24.807Z,1015.07
2018-11-20T05:59:05.365Z,1015.1
2018-11-20T05:59:45.969Z,1015.15
2018-11-20T06:00:26.536Z,1015.09
2018-11-20T06:01:07.089Z,1015.08
2018-11-20T06:01:47.648Z,1015.09
2018-11-20T06:02:28.212Z,1015.11
2018-11-20T06:03:08.772Z,1015.13
2018-11-20T06:03:49.330Z,1015.02
2018-11-20T06:04:29.874Z,1015.03
2018-11-20T06:05:10.483Z,1014.95
2018-11-20T06:05:51.248Z,1015.08
2018-11-20T06:06:31.784Z,1015.02
2018-11-20T06:07:12.415Z,1015.08
2018-11-20T06:07:53.031Z,1015.04
2018-11-20T06:08:33.601Z,1015.14
2018-11-20T06:09:14.163Z,1015.11
2018-11-20T06:09:54.746Z,1015.13
2018-11-20T06:10:35.482Z,1015.12
2018-11-20T06:11:16.052Z,1015.13
2018-11-20T06:11:56.613Z,1015.1
2018-11-20T06:12:37.331Z,1015.09
2018-11-20T06:13:17.828Z,1015.09
2018-11-20T06:13:58.395Z,1015.16
2018-11-20T06:14:39.010Z,1015.19
2018-11-20T06:15:19.562Z,1015.15
2018-11-20T06:16:00.122Z,1015.15
2018-11-20T06:16:40.705Z,1015.15
2018-11-20T06:17:21.266Z,1015.16
2018-11-20T06:18:01.837Z,1015.14
2018-11-20T06:18:42.453Z,1015.18
2018-11-20T06:19:22.958Z,1015.2
2018-11-20T06:20:03.535Z,1015.17
2018-11-20T06:20:44.089Z,1015.14
2018-11-20T06:21:24.665Z,1015.27
2018-11-20T06:22:05.328Z,1015.19
2018-11-20T06:22:45.893Z,1015.16
2018-11-20T06:23:26.452Z,1015.13
2018-11-20T06:24:07.028Z,1015.12
2018-11-20T06:24:47.595Z,1015.12
2018-11-20T06:25:28.149Z,1015.13
2018-11-20T06:26:08.836Z,1015.1
2018-11-20T06:26:49.405Z,1015.2
2018-11-20T06:27:29.987Z,1015.17
2018-11-20T06:28:10.567Z,1015.15
2018-11-20T06:28:51.334Z,1015.21
2018-11-20T06:29:31.772Z,1015.17
2018-11-20T06:30:12.376Z,1015.06
2018-11-20T06:30:53.358Z,1015.11
2018-11-20T06:31:33.962Z,1015.14
2018-11-20T06:32:14.571Z,1015.13
2018-11-20T06:32:55.389Z,1015.13
2018-11-20T06:33:36.752Z,1015.15
2018-11-20T06:34:17.894Z,1015.16
2018-11-20T06:34:59.353Z,1015.21
2018-11-20T06:35:39.799Z,1015.24
2018-11-20T06:36:20.570Z,1015.22
2018-11-20T06:37:01.181Z,1015.16
2018-11-20T06:37:41.844Z,1015.16
2018-11-20T06:38:22.431Z,1015.19
2018-11-20T06:39:04.321Z,1015.16
2018-11-20T06:39:44.131Z,1015.09
2018-11-20T06:40:25.067Z,1015.13
2018-11-20T06:41:05.797Z,1015.09
2018-11-20T06:41:46.606Z,1015.15
2018-11-20T06:42:27.539Z,1015.11
2018-11-20T06:43:08.405Z,1015.14
2018-11-20T06:43:48.974Z,1015.1
2018-11-20T06:44:29.583Z,1015.12
2018-11-20T06:45:10.269Z,1015.13
2018-11-20T06:45:50.932Z,1015.1
2018-11-20T06:46:31.514Z,1015.13
2018-11-20T06:47:12.169Z,1015.06
2018-11-20T06:47:52.643Z,1015.09
2018-11-20T06:48:33.435Z,1015.13
2018-11-20T06:49:14.156Z,1015.07
2018-11-20T06:49:54.704Z,1015.02
2018-11-20T06:50:35.277Z,1015.1
2018-11-20T06:51:15.829Z,1015.16
2018-11-20T06:51:56.408Z,1015.19
2018-11-20T06:52:36.982Z,1015.15
2018-11-20T06:53:17.608Z,1015.21
2018-11-20T06:53:58.224Z,1015.19
2018-11-20T06:54:38.787Z,1015.25
2018-11-20T06:55:19.528Z,1015.27
2018-11-20T06:56:00.080Z,1015.21
2018-11-20T06:56:40.629Z,1015.2
2018-11-20T06:57:21.269Z,1015.24
2018-11-20T06:58:01.758Z,1015.26
2018-11-20T06:58:45.214Z,1015.28
2018-11-20T06:59:26.466Z,1015.24
2018-11-20T07:00:07.022Z,1015.25
2018-11-20T07:00:47.580Z,1015.2
2018-11-20T07:01:28.145Z,1015.3
2018-11-20T07:02:08.741Z,1015.27
2018-11-20T07:02:49.344Z,1015.26
2018-11-20T07:03:29.905Z,1015.31
2018-11-20T07:04:10.463Z,1015.23
2018-11-20T07:04:51.022Z,1015.27
2018-11-20T07:05:31.603Z,1015.28
2018-11-20T07:06:12.178Z,1015.27
2018-11-20T07:06:52.718Z,1015.29
2018-11-20T07:07:33.466Z,1015.26
2018-11-20T07:08:14.084Z,1015.21
2018-11-20T07:08:54.520Z,1015.21
2018-11-20T07:09:34.989Z,1015.16
2018-11-20T07:10:15.546Z,1015.14
2018-11-20T07:10:56.093Z,1015.23
2018-11-20T07:11:36.660Z,1015.23
2018-11-20T07:12:17.220Z,1015.2
2018-11-20T07:12:57.774Z,1015.21
2018-11-20T07:13:38.361Z,1015.2
2018-11-20T07:14:18.945Z,1015.13
2018-11-20T07:14:59.556Z,1015.18
2018-11-20T07:15:40.319Z,1015.27
2018-11-20T07:16:20.820Z,1015.19
2018-11-20T07:17:01.294Z,1015.26
2018-11-20T07:17:41.861Z,1015.2
2018-11-20T07:18:22.420Z,1015.19
2018-11-20T07:19:02.979Z,1015.16
2018-11-20T07:19:43.549Z,1015.18
2018-11-20T07:20:24.114Z,1015.13
2018-11-20T07:21:04.661Z,1015.13
2018-11-20T07:21:45.227Z,1015.16
2018-11-20T07:22:25.840Z,1015.16
2018-11-20T07:23:06.366Z,1015.09
2018-11-20T07:23:46.909Z,1015.06
2018-11-20T07:24:27.467Z,1015.08
2018-11-20T07:25:08.020Z,1015.13
2018-11-20T07:25:48.599Z,1015.04
2018-11-20T07:26:29.247Z,1015.04
2018-11-20T07:27:09.801Z,1015.05
2018-11-20T07:27:50.351Z,1015.02
2018-11-20T07:28:30.908Z,1015.03
2018-11-20T07:29:11.472Z,1014.99
2018-11-20T07:29:52.070Z,1015.04
2018-11-20T07:30:32.624Z,1014.98
2018-11-20T07:31:13.226Z,1014.93
2018-11-20T07:31:53.813Z,1014.93
2018-11-20T07:32:34.336Z,1014.9
2018-11-20T07:33:14.968Z,1014.88
2018-11-20T07:33:55.526Z,1014.87
2018-11-20T07:34:36.126Z,1014.9
2018-11-20T07:35:16.673Z,1014.93
2018-11-20T07:35:57.235Z,1015
2018-11-20T07:36:37.903Z,1014.85
2018-11-20T07:37:18.656Z,1014.9
2018-11-20T07:37:58.967Z,1014.88
2018-11-20T07:38:39.553Z,1014.9
2018-11-20T07:39:20.116Z,1014.89
2018-11-20T07:40:00.668Z,1014.87
2018-11-20T07:40:41.279Z,1014.87
2018-11-20T07:41:21.835Z,1014.82
2018-11-20T07:42:02.399Z,1014.85
2018-11-20T07:42:42.952Z,1014.85
2018-11-20T07:43:23.539Z,1014.9
2018-11-20T07:44:04.942Z,1014.79
2018-11-20T07:44:45.882Z,1014.81
2018-11-20T07:45:26.503Z,1014.83
2018-11-20T07:46:07.016Z,1014.85
2018-11-20T07:46:47.577Z,1014.85
2018-11-20T07:47:28.155Z,1014.83
2018-11-20T07:48:08.722Z,1014.84
2018-11-20T07:48:49.322Z,1014.85
2018-11-20T07:49:31.289Z,1014.85
2018-11-20T07:50:11.993Z,1014.92
2018-11-20T07:50:53.123Z,1014.9
2018-11-20T07:51:33.892Z,1014.85
2018-11-20T07:52:14.590Z,1014.84
2018-11-20T07:52:55.286Z,1014.87
2018-11-20T07:53:35.861Z,1014.88
2018-11-20T07:54:16.492Z,1014.8
2018-11-20T07:54:57.052Z,1014.82
2018-11-20T07:55:37.757Z,1014.84
2018-11-20T07:56:18.361Z,1014.84
2018-11-20T07:56:58.741Z,1014.84
2018-11-20T07:57:39.328Z,1014.83
2018-11-20T07:58:19.909Z,1014.77
2018-11-20T07:59:00.485Z,1014.76
2018-11-20T07:59:41.071Z,1014.77
2018-11-20T08:00:21.631Z,1014.73
2018-11-20T08:01:02.202Z,1014.73
2018-11-20T08:01:42.748Z,1014.76
2018-11-20T08:02:23.353Z,1014.76
2018-11-20T08:03:03.867Z,1014.78
2018-11-20T08:03:44.418Z,1014.78
2018-11-20T08:04:24.993Z,1014.74
2018-11-20T08:05:05.562Z,1014.79
2018-11-20T08:05:46.165Z,1014.77
2018-11-20T08:06:26.693Z,1014.82
2018-11-20T08:07:07.255Z,1014.8
2018-11-20T08:07:47.852Z,1014.74
2018-11-20T08:08:28.476Z,1014.75
2018-11-20T08:09:08.969Z,1014.75
2018-11-20T08:09:49.535Z,1014.71
2018-11-20T08:10:30.130Z,1014.72
2018-11-20T08:11:10.713Z,1014.73
2018-11-20T08:11:51.272Z,1014.67
2018-11-20T08:12:31.838Z,1014.77
2018-11-20T08:13:12.401Z,1014.7